Flight Track Log - Related Links

Times and Time Zones

All times are in EST time to prevent confusion due to time zone crossing. See the AFL150 flight status page for this flight to view local times or setup timezone preferences in your user account.

Time Position Orientation Groundspeed Altitude Reporting Facility
EST Latitude Longitude Course Direction KTS MPH feet Rate Location/Type
Mon 04:16:00 AM 56.3390 36.8379 318° Northwest  Level FlightAware Approximate
Mon 04:17:00 AM 56.4299 36.6862 317° Northwest  Level FlightAware Approximate
Mon 04:18:00 AM 56.5207 36.5338 317° Northwest  Level FlightAware Approximate
Mon 04:19:00 AM 56.6112 36.3806 317° Northwest  Level FlightAware Approximate
Mon 04:20:00 AM 56.7016 36.2267 317° Northwest  Level FlightAware Approximate
Mon 04:21:00 AM 56.7917 36.0721 317° Northwest  Level FlightAware Approximate
Mon 04:22:00 AM 56.8817 35.9168 317° Northwest  Level FlightAware Approximate
Mon 04:23:00 AM 56.9715 35.7607 317° Northwest  Level FlightAware Approximate
Mon 04:24:00 AM 57.0611 35.6038 316° Northwest  Level FlightAware Approximate
Mon 04:25:00 AM 57.1504 35.4462 316° Northwest  Level FlightAware Approximate
Mon 04:26:00 AM 57.2396 35.2878 316° Northwest  Level FlightAware Approximate
Mon 04:27:00 AM 57.3286 35.1286 316° Northwest  Level FlightAware Approximate
Mon 04:28:00 AM 57.4174 34.9687 316° Northwest  Level FlightAware Approximate
Mon 04:29:00 AM 57.5060 34.8080 316° Northwest  Level FlightAware Approximate
Mon 04:30:00 AM 57.5943 34.6465 316° Northwest  Level FlightAware Approximate
Mon 04:31:00 AM 57.6215 34.5922 314° West  Level FlightAware Approximate
Mon 04:32:00 AM 57.7068 34.4246 314° West  Level FlightAware Approximate
Mon 04:33:00 AM 57.7920 34.2563 314° West  Level FlightAware Approximate
Mon 04:34:00 AM 57.8769 34.0872 313° West  Level FlightAware Approximate
Mon 04:35:00 AM 57.9616 33.9172 313° West  Level FlightAware Approximate
Mon 04:36:00 AM 58.0460 33.7465 313° West  Level FlightAware Approximate
Mon 04:37:00 AM 58.1302 33.5749 313° West  Level FlightAware Approximate
Mon 04:38:00 AM 58.2142 33.4026 313° West  Level FlightAware Approximate
Mon 04:39:00 AM 58.2980 33.2294 313° West  Level FlightAware Approximate
Mon 04:40:00 AM 58.3815 33.0554 313° West  Level FlightAware Approximate
Mon 04:41:00 AM 58.4648 32.8806 312° West  Level FlightAware Approximate
Mon 04:42:00 AM 58.5479 32.7049 312° West  Level FlightAware Approximate
Mon 04:43:00 AM 58.6307 32.5284 312° West  Level FlightAware Approximate
Mon 04:44:00 AM 58.7133 32.3511 312° West  Level FlightAware Approximate
Mon 04:45:00 AM 58.7956 32.1730 312° West  Level FlightAware Approximate
Mon 04:46:00 AM 58.8777 31.9939 312° West  Level FlightAware Approximate
Mon 04:47:00 AM 58.9595 31.8141 311° West  Level FlightAware Approximate
Mon 04:48:00 AM 59.0411 31.6334 311° West  Level FlightAware Approximate
Mon 04:49:00 AM 59.1224 31.4518 311° West  Level FlightAware Approximate
Mon 04:50:00 AM 59.2035 31.2694 311° West  Level FlightAware Approximate
Mon 04:51:00 AM 59.2843 31.0861 311° West  Level FlightAware Approximate
Mon 04:52:00 AM 59.3648 30.9019 311° West  Level FlightAware Approximate
Mon 04:53:00 AM 59.4451 30.7169 311° West  Level FlightAware Approximate
Mon 04:54:00 AM 59.5251 30.5309 310° West  Level FlightAware Approximate
Mon 04:55:00 AM 59.6049 30.3441 310° West  Level FlightAware Approximate
Mon 04:56:00 AM 59.6844 30.1564 310° West  Level FlightAware Approximate
Mon 04:57:00 AM 59.7636 29.9678 310° West  Level FlightAware Approximate
Mon 04:58:00 AM 59.8426 29.7783 310° West  Level FlightAware Approximate
Mon 04:59:00 AM 59.9213 29.5880 310° West  Level FlightAware Approximate
Mon 05:00:00 AM 59.9997 29.3967 309° West  Level FlightAware Approximate
Mon 05:01:00 AM 60.0778 29.2045 309° West  Level FlightAware Approximate
Mon 05:02:00 AM 60.1557 29.0114 309° West  Level FlightAware Approximate
Mon 05:03:00 AM 60.2332 28.8174 309° West  Level FlightAware Approximate
Mon 05:04:00 AM 60.3105 28.6224 309° West  Level FlightAware Approximate
Mon 05:05:00 AM 60.3875 28.4265 309° West  Level FlightAware Approximate
Mon 05:06:00 AM 60.4642 28.2298 308° West  Level FlightAware Approximate
Mon 05:07:00 AM 60.5407 28.0320 308° West  Level FlightAware Approximate
Mon 05:08:00 AM 60.6168 27.8334 308° West  Level FlightAware Approximate
Mon 05:09:00 AM 60.6926 27.6338 308° West  Level FlightAware Approximate
Mon 05:10:00 AM 60.7681 27.4333 308° West  Level FlightAware Approximate
Mon 05:11:00 AM 60.8434 27.2318 308° West  Level FlightAware Approximate
Mon 05:12:00 AM 60.9183 27.0294 307° West  Level FlightAware Approximate
Mon 05:13:00 AM 60.9929 26.8260 307° West  Level FlightAware Approximate
Mon 05:14:00 AM 61.0672 26.6217 307° West  Level FlightAware Approximate
Mon 05:15:00 AM 61.1412 26.4164 307° West  Level FlightAware Approximate
Mon 05:16:00 AM 61.2149 26.2101 307° West  Level FlightAware Approximate
Mon 05:17:00 AM 61.2883 26.0029 306° West  Level FlightAware Approximate
Mon 05:18:00 AM 61.3614 25.7947 306° West  Level FlightAware Approximate
Mon 05:19:00 AM 61.4341 25.5855 306° West  Level FlightAware Approximate
Mon 05:20:00 AM 61.5065 25.3754 306° West  Level FlightAware Approximate
Mon 05:21:00 AM 61.5786 25.1643 306° West  Level FlightAware Approximate
Mon 05:22:00 AM 61.6504 24.9522 306° West  Level FlightAware Approximate
Mon 05:23:00 AM 61.7218 24.7391 305° West  Level FlightAware Approximate
Mon 05:24:00 AM 61.7929 24.5250 305° West  Level FlightAware Approximate
Mon 05:25:00 AM 61.8637 24.3100 305° West  Level FlightAware Approximate
Mon 05:26:00 AM 61.9341 24.0939 305° West  Level FlightAware Approximate
Mon 05:27:00 AM 62.0042 23.8769 305° West  Level FlightAware Approximate
Mon 05:28:00 AM 62.0740 23.6588 304° West  Level FlightAware Approximate
Mon 05:29:00 AM 62.1434 23.4398 304° West  Level FlightAware Approximate
Mon 05:30:00 AM 62.2124 23.2197 304° West  Level FlightAware Approximate
Mon 05:31:00 AM 62.2811 22.9986 304° West  Level FlightAware Approximate
Mon 05:32:00 AM 62.3495 22.7766 304° West  Level FlightAware Approximate
Mon 05:33:00 AM 62.4175 22.5535 303° West  Level FlightAware Approximate
Mon 05:34:00 AM 62.4851 22.3294 303° West  Level FlightAware Approximate
Mon 05:35:00 AM 62.5524 22.1043 303° West  Level FlightAware Approximate
Mon 05:36:00 AM 62.6193 21.8781 303° West  Level FlightAware Approximate
Mon 05:37:00 AM 62.6859 21.6510 303° West  Level FlightAware Approximate
Mon 05:38:00 AM 62.7521 21.4228 302° West  Level FlightAware Approximate
Mon 05:39:00 AM 62.8179 21.1936 302° West  Level FlightAware Approximate
Mon 05:40:00 AM 62.8833 20.9634 302° West  Level FlightAware Approximate
Mon 05:41:00 AM 62.9484 20.7322 302° West  Level FlightAware Approximate
Mon 05:42:00 AM 63.0131 20.4999 302° West  Level FlightAware Approximate
Mon 05:43:00 AM 63.0773 20.2666 301° West  Level FlightAware Approximate
Mon 05:44:00 AM 63.1413 20.0323 301° West  Level FlightAware Approximate
Mon 05:45:00 AM 63.2049 19.7970 301° West  Level FlightAware Approximate
Mon 05:46:00 AM 63.2681 19.5607 301° West  Level FlightAware Approximate
Mon 05:47:00 AM 63.3310 19.3234 301° West  Level FlightAware Approximate
Mon 05:48:00 AM 63.3934 19.0851 300° West  Level FlightAware Approximate
Mon 05:49:00 AM 63.4554 18.8457 300° West  Level FlightAware Approximate
Mon 05:50:00 AM 63.5171 18.6053 300° West  Level FlightAware Approximate
Mon 05:51:00 AM 63.5783 18.3639 300° West  Level FlightAware Approximate
Mon 05:52:00 AM 63.6392 18.1214 300° West  Level FlightAware Approximate
Mon 05:53:00 AM 63.6996 17.8779 299° West  Level FlightAware Approximate
Mon 05:54:00 AM 63.7596 17.6334 299° West  Level FlightAware Approximate
Mon 05:55:00 AM 63.8192 17.3878 299° West  Level FlightAware Approximate
Mon 05:56:00 AM 63.8784 17.1411 299° West  Level FlightAware Approximate
Mon 05:57:00 AM 63.9372 16.8935 298° West  Level FlightAware Approximate
Mon 05:58:00 AM 63.9955 16.6448 298° West  Level FlightAware Approximate
Mon 05:59:00 AM 64.0534 16.3950 298° West  Level FlightAware Approximate
Mon 06:00:00 AM 64.1109 16.1443 298° West  Level FlightAware Approximate
Mon 06:01:00 AM 64.1679 15.8925 298° West  Level FlightAware Approximate
Mon 06:02:00 AM 64.2245 15.6396 297° West  Level FlightAware Approximate
Mon 06:03:00 AM 64.2807 15.3857 297° West  Level FlightAware Approximate
Mon 06:04:00 AM 64.3364 15.1308 297° West  Level FlightAware Approximate
Mon 06:05:00 AM 64.3917 14.8749 297° West  Level FlightAware Approximate
Mon 06:06:00 AM 64.4465 14.6179 296° West  Level FlightAware Approximate
Mon 06:07:00 AM 64.5009 14.3599 296° West  Level FlightAware Approximate
Mon 06:08:00 AM 64.5548 14.1009 296° West  Level FlightAware Approximate
Mon 06:09:00 AM 64.6083 13.8409 296° West  Level FlightAware Approximate
Mon 06:10:00 AM 64.6613 13.5798 295° West  Level FlightAware Approximate
Mon 06:11:00 AM 64.7139 13.3177 295° West  Level FlightAware Approximate
Mon 06:12:00 AM 64.7660 13.0546 295° West  Level FlightAware Approximate
Mon 06:13:00 AM 64.8176 12.7905 295° West  Level FlightAware Approximate
Mon 06:14:00 AM 64.8688 12.5254 295° West  Level FlightAware Approximate
Mon 06:15:00 AM 64.9194 12.2593 294° West  Level FlightAware Approximate
Mon 06:16:00 AM 64.9696 11.9922 294° West  Level FlightAware Approximate
Mon 06:17:00 AM 65.0193 11.7240 294° West  Level FlightAware Approximate
Mon 06:18:00 AM 65.0686 11.4549 294° West  Level FlightAware Approximate
Mon 06:19:00 AM 65.1173 11.1848 293° West  Level FlightAware Approximate
Mon 06:20:00 AM 65.1656 10.9137 293° West  Level FlightAware Approximate
Mon 06:21:00 AM 65.2134 10.6416 293° West  Level FlightAware Approximate
Mon 06:22:00 AM 65.2607 10.3686 293° West  Level FlightAware Approximate
Mon 06:23:00 AM 65.3075 10.0945 292° West  Level FlightAware Approximate
Mon 06:24:00 AM 65.3538 9.8195 292° West  Level FlightAware Approximate
Mon 06:25:00 AM 65.3995 9.5436 292° West  Level FlightAware Approximate
Mon 06:26:00 AM 65.4448 9.2666 292° West  Level FlightAware Approximate
Mon 06:27:00 AM 65.4896 8.9887 291° West  Level FlightAware Approximate
Mon 06:28:00 AM 65.5338 8.7099 291° West  Level FlightAware Approximate
Mon 06:29:00 AM 65.5776 8.4301 291° West  Level FlightAware Approximate
Mon 06:30:00 AM 65.6208 8.1494 291° West  Level FlightAware Approximate
Mon 06:31:00 AM 65.6635 7.8678 290° West  Level FlightAware Approximate
Mon 06:32:00 AM 65.7057 7.5852 290° West  Level FlightAware Approximate
Mon 06:33:00 AM 65.7474 7.3017 290° West  Level FlightAware Approximate
Mon 06:34:00 AM 65.7885 7.0173 290° West  Level FlightAware Approximate
Mon 06:35:00 AM 65.8291 6.7320 289° West  Level FlightAware Approximate
Mon 06:36:00 AM 65.8692 6.4458 289° West  Level FlightAware Approximate
Mon 06:37:00 AM 65.9088 6.1587 289° West  Level FlightAware Approximate
Mon 06:38:00 AM 65.9478 5.8708 289° West  Level FlightAware Approximate
Mon 06:39:00 AM 65.9862 5.5819 288° West  Level FlightAware Approximate
Mon 06:40:00 AM 66.0242 5.2922 288° West  Level FlightAware Approximate
Mon 06:41:00 AM 66.0615 5.0016 288° West  Level FlightAware Approximate
Mon 06:42:00 AM 66.0984 4.7102 287° West  Level FlightAware Approximate
Mon 06:43:00 AM 66.1347 4.4180 287° West  Level FlightAware Approximate
Mon 06:44:00 AM 66.1704 4.1249 287° West  Level FlightAware Approximate
Mon 06:45:00 AM 66.2056 3.8310 287° West  Level FlightAware Approximate
Mon 06:46:00 AM 66.2402 3.5363 286° West  Level FlightAware Approximate
Mon 06:47:00 AM 66.2742 3.2407 286° West  Level FlightAware Approximate
Mon 06:48:00 AM 66.3077 2.9444 286° West  Level FlightAware Approximate
Mon 06:49:00 AM 66.3406 2.6473 286° West  Level FlightAware Approximate
Mon 06:50:00 AM 66.3730 2.3494 285° West  Level FlightAware Approximate
Mon 06:51:00 AM 66.4048 2.0508 285° West  Level FlightAware Approximate
Mon 06:52:00 AM 66.4360 1.7514 285° West  Level FlightAware Approximate
Mon 06:53:00 AM 66.4666 1.4513 284° West  Level FlightAware Approximate
Mon 06:54:00 AM 66.4967 1.1504 284° West  Level FlightAware Approximate
Mon 06:55:00 AM 66.5262 0.8488 284° West  Level FlightAware Approximate
Mon 06:56:00 AM 66.5551 0.5465 284° West  Level FlightAware Approximate
Mon 06:57:00 AM 66.5834 0.2436 283° West  Level FlightAware Approximate
Mon 06:58:00 AM 66.6111 -0.0601 283° West  Level FlightAware Approximate
Mon 06:59:00 AM 66.6383 -0.3645 283° West  Level FlightAware Approximate
Mon 07:00:00 AM 66.6648 -0.6695 283° West  Level FlightAware Approximate
Mon 07:01:00 AM 66.6908 -0.9751 282° West  Level FlightAware Approximate
Mon 07:02:00 AM 66.7161 -1.2814 282° West  Level FlightAware Approximate
Mon 07:03:00 AM 66.7409 -1.5884 282° West  Level FlightAware Approximate
Mon 07:04:00 AM 66.7651 -1.8959 281° West  Level FlightAware Approximate
Mon 07:05:00 AM 66.7887 -2.2040 281° West  Level FlightAware Approximate
Mon 07:06:00 AM 66.8116 -2.5127 281° West  Level FlightAware Approximate
Mon 07:07:00 AM 66.8340 -2.8220 281° West  Level FlightAware Approximate
Mon 07:08:00 AM 66.8558 -3.1319 280° West  Level FlightAware Approximate
Mon 07:09:00 AM 66.8769 -3.4422 280° West  Level FlightAware Approximate
Mon 07:10:00 AM 66.8975 -3.7531 280° West  Level FlightAware Approximate
Mon 07:11:00 AM 66.9174 -4.0646 279° West  Level FlightAware Approximate
Mon 07:12:00 AM 66.9367 -4.3765 279° West  Level FlightAware Approximate
Mon 07:13:00 AM 66.9555 -4.6889 279° West  Level FlightAware Approximate
Mon 07:14:00 AM 66.9736 -5.0018 279° West  Level FlightAware Approximate
Mon 07:15:00 AM 66.9911 -5.3152 278° West  Level FlightAware Approximate
Mon 07:16:00 AM 67.0079 -5.6290 278° West  Level FlightAware Approximate
Mon 07:17:00 AM 67.0242 -5.9432 278° West  Level FlightAware Approximate
Mon 07:18:00 AM 67.0398 -6.2578 277° West  Level FlightAware Approximate
Mon 07:19:00 AM 67.0548 -6.5728 277° West  Level FlightAware Approximate
Mon 07:20:00 AM 67.0692 -6.8882 277° West  Level FlightAware Approximate
Mon 07:21:00 AM 67.0830 -7.2040 277° West  Level FlightAware Approximate
Mon 07:22:00 AM 67.0961 -7.5201 276° West  Level FlightAware Approximate
Mon 07:23:00 AM 67.1086 -7.8366 276° West  Level FlightAware Approximate
Mon 07:24:00 AM 67.1205 -8.1534 276° West  Level FlightAware Approximate
Mon 07:25:00 AM 67.1318 -8.4705 275° West  Level FlightAware Approximate
Mon 07:26:00 AM 67.1424 -8.7878 275° West  Level FlightAware Approximate
Mon 07:27:00 AM 67.1524 -9.1055 275° West  Level FlightAware Approximate
Mon 07:28:00 AM 67.1618 -9.4234 274° West  Level FlightAware Approximate
Mon 07:29:00 AM 67.1705 -9.7415 274° West  Level FlightAware Approximate
Mon 07:30:00 AM 67.1786 -10.0599 274° West  Level FlightAware Approximate
Mon 07:31:00 AM 67.1861 -10.3784 274° West  Level FlightAware Approximate
Mon 07:32:00 AM 67.1929 -10.6972 273° West  Level FlightAware Approximate
Mon 07:33:00 AM 67.1991 -11.0161 273° West  Level FlightAware Approximate
Mon 07:34:00 AM 67.2047 -11.3352 273° West  Level FlightAware Approximate
Mon 07:35:00 AM 67.2096 -11.6544 272° West  Level FlightAware Approximate
Mon 07:36:00 AM 67.2139 -11.9737 272° West  Level FlightAware Approximate
Mon 07:37:00 AM 67.2176 -12.2932 272° West  Level FlightAware Approximate
Mon 07:38:00 AM 67.2206 -12.6127 272° West  Level FlightAware Approximate
Mon 07:39:00 AM 67.2230 -12.9323 271° West  Level FlightAware Approximate
Mon 07:40:00 AM 67.2247 -13.2520 271° West  Level FlightAware Approximate
Mon 07:41:00 AM 67.2258 -13.5717 271° West  Level FlightAware Approximate
Mon 07:42:00 AM 67.2263 -13.8914 270° West  Level FlightAware Approximate
Mon 07:43:00 AM 67.2262 -14.2111 270° West  Level FlightAware Approximate
Mon 07:44:00 AM 67.2254 -14.5309 270° West  Level FlightAware Approximate
Mon 07:45:00 AM 67.2239 -14.8505 269° West  Level FlightAware Approximate
Mon 07:46:00 AM 67.2219 -15.1702 269° West  Level FlightAware Approximate
Mon 07:47:00 AM 67.2192 -15.4897 269° West  Level FlightAware Approximate
Mon 07:48:00 AM 67.2158 -15.8092 269° West  Level FlightAware Approximate
Mon 07:49:00 AM 67.2119 -16.1286 268° West  Level FlightAware Approximate
Mon 07:50:00 AM 67.2072 -16.4479 268° West  Level FlightAware Approximate
Mon 07:51:00 AM 67.2020 -16.7671 268° West  Level FlightAware Approximate
Mon 07:52:00 AM 67.1961 -17.0861 267° West  Level FlightAware Approximate
Mon 07:53:00 AM 67.1896 -17.4049 267° West  Level FlightAware Approximate
Mon 07:54:00 AM 67.1824 -17.7236 267° West  Level FlightAware Approximate
Mon 07:55:00 AM 67.1747 -18.0420 267° West  Level FlightAware Approximate
Mon 07:56:00 AM 67.1663 -18.3603 266° West  Level FlightAware Approximate
Mon 07:57:00 AM 67.1572 -18.6783 266° West  Level FlightAware Approximate
Mon 07:58:00 AM 67.1475 -18.9960 265° West  Level FlightAware Approximate
Mon 07:59:00 AM 67.1369 -19.3135 265° West  Level FlightAware Approximate
Mon 08:00:00 AM 67.1258 -19.6307 265° West  Level FlightAware Approximate
Mon 08:01:00 AM 67.1140 -19.9475 265° West  Level FlightAware Approximate
Mon 08:02:00 AM 67.1016 -20.2641 264° West  Level FlightAware Approximate
Mon 08:03:00 AM 67.0886 -20.5803 264° West  Level FlightAware Approximate
Mon 08:04:00 AM 67.0750 -20.8962 264° West  Level FlightAware Approximate
Mon 08:05:00 AM 67.0607 -21.2117 264° West  Level FlightAware Approximate
Mon 08:06:00 AM 67.0458 -21.5269 263° West  Level FlightAware Approximate
Mon 08:07:00 AM 67.0303 -21.8416 263° West  Level FlightAware Approximate
Mon 08:08:00 AM 67.0141 -22.1560 263° West  Level FlightAware Approximate
Mon 08:09:00 AM 66.9974 -22.4699 262° West  Level FlightAware Approximate
Mon 08:10:00 AM 66.9800 -22.7833 262° West  Level FlightAware Approximate
Mon 08:11:00 AM 66.9620 -23.0963 262° West  Level FlightAware Approximate
Mon 08:12:00 AM 66.9434 -23.4089 261° West  Level FlightAware Approximate
Mon 08:13:00 AM 66.9242 -23.7209 261° West  Level FlightAware Approximate
Mon 08:14:00 AM 66.9043 -24.0325 261° West  Level FlightAware Approximate
Mon 08:15:00 AM 66.8839 -24.3435 261° West  Level FlightAware Approximate
Mon 08:16:00 AM 66.8628 -24.6541 260° West  Level FlightAware Approximate
Mon 08:17:00 AM 66.8412 -24.9640 260° West  Level FlightAware Approximate
Mon 08:18:00 AM 66.8189 -25.2735 260° West  Level FlightAware Approximate
Mon 08:19:00 AM 66.7960 -25.5823 259° West  Level FlightAware Approximate
Mon 08:20:00 AM 66.7726 -25.8906 259° West  Level FlightAware Approximate
Mon 08:21:00 AM 66.7491 -26.1985 259° West  Level FlightAware Approximate
Mon 08:22:00 AM 66.7252 -26.5060 259° West  Level FlightAware Approximate
Mon 08:23:00 AM 66.7008 -26.8129 259° West  Level FlightAware Approximate
Mon 08:24:00 AM 66.6757 -27.1192 258° West  Level FlightAware Approximate
Mon 08:25:00 AM 66.6500 -27.4248 258° West  Level FlightAware Approximate
Mon 08:26:00 AM 66.6238 -27.7298 258° West  Level FlightAware Approximate
Mon 08:27:00 AM 66.5969 -28.0341 258° West  Level FlightAware Approximate
Mon 08:28:00 AM 66.5695 -28.3378 257° West  Level FlightAware Approximate
Mon 08:29:00 AM 66.5415 -28.6408 257° West  Level FlightAware Approximate
Mon 08:30:00 AM 66.5129 -28.9431 257° West  Level FlightAware Approximate
Mon 08:31:00 AM 66.4837 -29.2447 257° West  Level FlightAware Approximate
Mon 08:32:00 AM 66.4540 -29.5457 256° West  Level FlightAware Approximate
Mon 08:33:00 AM 66.4236 -29.8458 256° West  Level FlightAware Approximate
Mon 08:34:00 AM 66.3927 -30.1453 256° West  Level FlightAware Approximate
Mon 08:35:00 AM 66.3612 -30.4440 255° West  Level FlightAware Approximate
Mon 08:36:00 AM 66.3292 -30.7419 255° West  Level FlightAware Approximate
Mon 08:37:00 AM 66.2965 -31.0391 255° West  Level FlightAware Approximate
Mon 08:38:00 AM 66.2634 -31.3355 255° West  Level FlightAware Approximate
Mon 08:39:00 AM 66.2296 -31.6311 254° West  Level FlightAware Approximate
Mon 08:40:00 AM 66.1953 -31.9259 254° West  Level FlightAware Approximate
Mon 08:41:00 AM 66.1604 -32.2199 254° West  Level FlightAware Approximate
Mon 08:42:00 AM 66.1250 -32.5131 253° West  Level FlightAware Approximate
Mon 08:43:00 AM 66.0888 -32.8053 253° West  Level FlightAware Approximate
Mon 08:44:00 AM 66.0516 -33.0963 253° West  Level FlightAware Approximate
Mon 08:45:00 AM 66.0138 -33.3864 252° West  Level FlightAware Approximate
Mon 08:46:00 AM 65.9754 -33.6757 252° West  Level FlightAware Approximate
Mon 08:47:00 AM 65.9366 -33.9641 252° West  Level FlightAware Approximate
Mon 08:48:00 AM 65.8971 -34.2516 252° West  Level FlightAware Approximate
Mon 08:49:00 AM 65.8572 -34.5382 251° West  Level FlightAware Approximate
Mon 08:50:00 AM 65.8167 -34.8239 251° West  Level FlightAware Approximate
Mon 08:51:00 AM 65.7757 -35.1087 251° West  Level FlightAware Approximate
Mon 08:52:00 AM 65.7342 -35.3927 251° West  Level FlightAware Approximate
Mon 08:53:00 AM 65.6921 -35.6756 250° West  Level FlightAware Approximate
Mon 08:54:00 AM 65.6495 -35.9577 250° West  Level FlightAware Approximate
Mon 08:55:00 AM 65.6064 -36.2388 250° West  Level FlightAware Approximate
Mon 08:56:00 AM 65.5628 -36.5191 249° West  Level FlightAware Approximate
Mon 08:57:00 AM 65.5186 -36.7983 249° West  Level FlightAware Approximate
Mon 08:58:00 AM 65.4740 -37.0766 249° West  Level FlightAware Approximate
Mon 08:59:00 AM 65.4288 -37.3540 249° West  Level FlightAware Approximate
Mon 09:00:00 AM 65.3832 -37.6304 248° West  Level FlightAware Approximate
Mon 09:01:00 AM 65.3370 -37.9058 248° West  Level FlightAware Approximate
Mon 09:02:00 AM 65.2903 -38.1803 248° West  Level FlightAware Approximate
Mon 09:03:00 AM 65.2432 -38.4538 248° West  Level FlightAware Approximate
Mon 09:04:00 AM 65.1955 -38.7263 247° West  Level FlightAware Approximate
Mon 09:05:00 AM 65.1474 -38.9978 247° West  Level FlightAware Approximate
Mon 09:06:00 AM 65.0987 -39.2683 247° West  Level FlightAware Approximate
Mon 09:07:00 AM 65.0496 -39.5379 247° West  Level FlightAware Approximate
Mon 09:08:00 AM 65.0000 -39.8064 246° West  Level FlightAware Approximate
Mon 09:09:00 AM 64.9499 -40.0739 246° West  Level FlightAware Approximate
Mon 09:10:00 AM 64.8993 -40.3405 246° West  Level FlightAware Approximate
Mon 09:11:00 AM 64.8483 -40.6060 246° West  Level FlightAware Approximate
Mon 09:12:00 AM 64.7968 -40.8705 246° West  Level FlightAware Approximate
Mon 09:13:00 AM 64.7448 -41.1340 245° Southwest  Level FlightAware Approximate
Mon 09:14:00 AM 64.6923 -41.3965 245° Southwest  Level FlightAware Approximate
Mon 09:15:00 AM 64.6394 -41.6580 245° Southwest  Level FlightAware Approximate
Mon 09:16:00 AM 64.5861 -41.9184 245° Southwest  Level FlightAware Approximate
Mon 09:17:00 AM 64.5322 -42.1779 244° Southwest  Level FlightAware Approximate
Mon 09:18:00 AM 64.4780 -42.4363 244° Southwest  Level FlightAware Approximate
Mon 09:19:00 AM 64.4232 -42.6937 244° Southwest  Level FlightAware Approximate
Mon 09:20:00 AM 64.3680 -42.9500 244° Southwest  Level FlightAware Approximate
Mon 09:21:00 AM 64.3124 -43.2053 243° Southwest  Level FlightAware Approximate
Mon 09:22:00 AM 64.2563 -43.4596 243° Southwest  Level FlightAware Approximate
Mon 09:23:00 AM 64.1998 -43.7128 243° Southwest  Level FlightAware Approximate
Mon 09:24:00 AM 64.1429 -43.9651 243° Southwest  Level FlightAware Approximate
Mon 09:25:00 AM 64.0855 -44.2162 242° Southwest  Level FlightAware Approximate
Mon 09:26:00 AM 64.0277 -44.4664 242° Southwest  Level FlightAware Approximate
Mon 09:27:00 AM 63.9695 -44.7155 242° Southwest  Level FlightAware Approximate
Mon 09:28:00 AM 63.9108 -44.9635 242° Southwest  Level FlightAware Approximate
Mon 09:29:00 AM 63.8517 -45.2106 242° Southwest  Level FlightAware Approximate
Mon 09:30:00 AM 63.7922 -45.4565 241° Southwest  Level FlightAware Approximate
Mon 09:31:00 AM 63.7323 -45.7015 241° Southwest  Level FlightAware Approximate
Mon 09:32:00 AM 63.6719 -45.9454 241° Southwest  Level FlightAware Approximate
Mon 09:33:00 AM 63.6112 -46.1883 241° Southwest  Level FlightAware Approximate
Mon 09:34:00 AM 63.5500 -46.4301 240° Southwest  Level FlightAware Approximate
Mon 09:35:00 AM 63.4884 -46.6709 240° Southwest  Level FlightAware Approximate
Mon 09:36:00 AM 63.4265 -46.9106 240° Southwest  Level FlightAware Approximate
Mon 09:37:00 AM 63.3641 -47.1493 240° Southwest  Level FlightAware Approximate
Mon 09:38:00 AM 63.3014 -47.3870 240° Southwest  Level FlightAware Approximate
Mon 09:39:00 AM 63.2382 -47.6237 239° Southwest  Level FlightAware Approximate
Mon 09:40:00 AM 63.1746 -47.8593 239° Southwest  Level FlightAware Approximate
Mon 09:41:00 AM 63.1107 -48.0938 239° Southwest  Level FlightAware Approximate
Mon 09:42:00 AM 63.0464 -48.3274 239° Southwest  Level FlightAware Approximate
Mon 09:43:00 AM 62.9817 -48.5599 239° Southwest  Level FlightAware Approximate
Mon 09:44:00 AM 62.9166 -48.7913 238° Southwest  Level FlightAware Approximate
Mon 09:45:00 AM 62.8512 -49.0218 238° Southwest  Level FlightAware Approximate
Mon 09:46:00 AM 62.7853 -49.2512 238° Southwest  Level FlightAware Approximate
Mon 09:47:00 AM 62.7191 -49.4796 238° Southwest  Level FlightAware Approximate
Mon 09:48:00 AM 62.6525 -49.7070 238° Southwest  Level FlightAware Approximate
Mon 09:49:00 AM 62.5856 -49.9333 237° Southwest  Level FlightAware Approximate
Mon 09:50:00 AM 62.5183 -50.1586 237° Southwest  Level FlightAware Approximate
Mon 09:51:00 AM 62.4506 -50.3829 237° Southwest  Level FlightAware Approximate
Mon 09:52:00 AM 62.3826 -50.6062 237° Southwest  Level FlightAware Approximate
Mon 09:53:00 AM 62.3142 -50.8285 237° Southwest  Level FlightAware Approximate
Mon 09:54:00 AM 62.2454 -51.0498 236° Southwest  Level FlightAware Approximate
Mon 09:55:00 AM 62.1764 -51.2700 236° Southwest  Level FlightAware Approximate
Mon 09:56:00 AM 62.1069 -51.4893 236° Southwest  Level FlightAware Approximate
Mon 09:57:00 AM 62.0372 -51.7075 236° Southwest  Level FlightAware Approximate
Mon 09:58:00 AM 61.9670 -51.9248 236° Southwest  Level FlightAware Approximate
Mon 09:59:00 AM 61.8966 -52.1410 235° Southwest  Level FlightAware Approximate
Mon 10:00:00 AM 61.8258 -52.3563 235° Southwest  Level FlightAware Approximate
Mon 10:01:00 AM 61.7546 -52.5705 235° Southwest  Level FlightAware Approximate
Mon 10:02:00 AM 61.6832 -52.7838 235° Southwest  Level FlightAware Approximate
Mon 10:03:00 AM 61.6114 -52.9961 235° Southwest  Level FlightAware Approximate
Mon 10:04:00 AM 61.5392 -53.2073 234° Southwest  Level FlightAware Approximate
Mon 10:05:00 AM 61.4668 -53.4176 234° Southwest  Level FlightAware Approximate
Mon 10:06:00 AM 61.3940 -53.6270 234° Southwest  Level FlightAware Approximate
Mon 10:07:00 AM 61.3209 -53.8353 234° Southwest  Level FlightAware Approximate
Mon 10:08:00 AM 61.2475 -54.0427 234° Southwest  Level FlightAware Approximate
Mon 10:08:32 AM 63.5833 -55.3000 219° Southwest 470 541 37,000  Level Gander Center
Mon 10:09:00 AM 61.1738 -54.2491 234° Southwest  Level FlightAware Approximate
Mon 10:10:00 AM 61.0998 -54.4546 233° Southwest  Level FlightAware Approximate
Mon 10:11:00 AM 61.0254 -54.6591 233° Southwest  Level FlightAware Approximate
Mon 10:12:00 AM 60.9288 -54.8217 219° Southwest  Level Estimated
Mon 10:12:01 AM 63.3500 -56.0833 237° Southwest 450 518 37,000  Level Gander Center
Mon 10:12:56 AM 63.2833 -56.2667 231° Southwest 450 518 37,000  Level Gander Center
Mon 10:13:00 AM 60.8321 -54.9833 219° Southwest  Level Estimated
Mon 10:14:00 AM 60.7351 -55.1439 219° Southwest  Level Estimated
Mon 10:15:01 AM 63.1333 -56.7667 237° Southwest 460 529 37,000  Level Gander Center
Mon 10:15:56 AM 63.0833 -56.9667 241° Southwest 450 518 37,000  Level Gander Center
Mon 10:16:56 AM 63.0167 -57.2000 238° Southwest 460 529 37,000  Level Gander Center
Mon 10:17:56 AM 62.9333 -57.4167 230° Southwest 460 529 37,000  Level Gander Center
Mon 10:18:56 AM 62.8833 -57.6500 245° Southwest 460 529 37,000  Level Gander Center
Mon 10:19:56 AM 62.8000 -57.8833 232° Southwest 460 529 37,000  Level Gander Center
Mon 10:20:56 AM 62.7333 -58.1000 236° Southwest 450 518 37,000  Level Gander Center
Mon 10:21:56 AM 62.6667 -58.3167 236° Southwest 450 518 37,000  Level Gander Center
Mon 10:22:56 AM 62.5833 -58.5500 232° Southwest 450 518 37,000  Level Gander Center
Mon 10:23:55 AM 62.5167 -58.6833 223° Southwest 450 518 37,000  Level Montreal Center
Mon 10:24:56 AM 62.4333 -58.9833 239° Southwest 450 518 37,000  Level Gander Center
Mon 10:25:56 AM 62.3833 -59.2167 245° Southwest 450 518 37,000  Level Gander Center
Mon 10:26:56 AM 62.3000 -59.4000 226° Southwest 450 518 37,000  Level Gander Center
Mon 10:27:56 AM 62.2167 -59.6167 231° Southwest 450 518 37,000  Level Gander Center
Mon 10:28:56 AM 62.1500 -59.8333 237° Southwest 450 518 37,000  Level Gander Center
Mon 10:29:55 AM 62.0833 -60.0000 230° Southwest 440 506 37,000  Level Montreal Center
Mon 10:30:55 AM 62.0000 -60.1833 226° Southwest 440 506 37,000  Level Montreal Center
Mon 10:31:55 AM 61.9333 -60.4000 237° Southwest 440 506 37,000  Level Montreal Center
Mon 10:32:55 AM 61.8500 -60.6167 231° Southwest 440 506 37,000  Level Montreal Center
Mon 10:33:55 AM 61.7833 -60.8333 237° Southwest 440 506 37,000  Level Montreal Center
Mon 10:35:56 AM 61.6333 -61.2833 235° Southwest 440 506 37,000  Level Gander Center
Mon 10:36:56 AM 61.5667 -61.4833 235° Southwest 450 518 37,000  Level Gander Center
Mon 10:37:55 AM 61.4833 -61.6500 224° Southwest 440 506 37,000  Level Montreal Center
Mon 10:38:55 AM 61.4000 -61.8333 227° Southwest 450 518 37,000  Level Montreal Center
Mon 10:39:55 AM 61.3167 -62.0500 231° Southwest 450 518 37,000  Level Montreal Center
Mon 10:40:55 AM 61.2667 -62.2500 243° Southwest 440 506 37,000  Level Montreal Center
Mon 10:41:55 AM 61.1833 -62.4667 231° Southwest 450 518 37,000  Level Montreal Center
Mon 10:42:55 AM 61.1000 -62.6833 232° Southwest 450 518 37,000  Level Montreal Center
Mon 10:44:55 AM 60.9333 -63.0667 228° Southwest 440 506 37,000  Level Montreal Center
Mon 10:45:55 AM 60.8500 -63.3000 234° Southwest 470 541 37,000 250 Level Montreal Center
Mon 10:46:55 AM 60.7667 -63.5000 230° Southwest 450 518 37,500 331 Climbing Montreal Center
Mon 10:48:56 AM 60.6000 -63.9500 233° Southwest 460 529 38,000 166 Climbing Gander Center
Mon 10:49:56 AM 60.5333 -64.1500 236° Southwest 460 529 38,000  Level Gander Center
Mon 10:50:55 AM 60.4500 -64.2833 218° Southwest 460 529 38,000  Level Montreal Center
Mon 10:51:55 AM 60.3667 -64.4833 230° Southwest 460 529 38,000  Level Montreal Center
Mon 10:53:56 AM 60.2000 -64.9333 233° Southwest 460 529 38,000  Level Gander Center
Mon 10:54:56 AM 60.1167 -65.1167 228° Southwest 460 529 38,000  Level Gander Center
Mon 10:55:55 AM 60.0333 -65.2333 215° Southwest 460 529 38,000  Level Montreal Center
Mon 10:57:55 AM 59.8333 -65.5667 220° Southwest 450 518 38,000  Level Montreal Center
Mon 10:58:55 AM 59.7333 -65.7333 220° Southwest 450 518 38,000  Level Montreal Center
Mon 10:59:55 AM 59.6333 -65.9000 220° Southwest 450 518 38,000  Level Montreal Center
Mon 11:00:55 AM 59.5500 -66.0667 225° Southwest 450 518 38,000  Level Montreal Center
Mon 11:01:55 AM 59.4500 -66.2167 217° Southwest 460 529 38,000  Level Montreal Center
Mon 11:02:55 AM 59.3500 -66.3833 220° Southwest 460 529 38,000  Level Montreal Center
Mon 11:03:56 AM 59.2500 -66.6167 230° Southwest 460 529 38,000  Level Gander Center
Mon 11:04:55 AM 59.1667 -66.7333 216° Southwest 460 529 38,000  Level Montreal Center
Mon 11:05:55 AM 59.0667 -66.8833 218° Southwest 460 529 38,000  Level Montreal Center
Mon 11:06:55 AM 58.9667 -67.0500 221° Southwest 450 518 38,000  Level Montreal Center
Mon 11:07:56 AM 58.8667 -67.2500 226° Southwest 450 518 38,000  Level Gander Center
Mon 11:08:56 AM 58.7833 -67.4000 223° Southwest 450 518 38,000  Level Gander Center
Mon 11:09:55 AM 58.6667 -67.5167 207° Southwest 450 518 38,000  Level Montreal Center
Mon 11:10:55 AM 58.5833 -67.6667 223° Southwest 450 518 38,000  Level Montreal Center
Mon 11:11:55 AM 58.4667 -67.8167 214° Southwest 450 518 38,000  Level Montreal Center
Mon 11:12:55 AM 58.3833 -67.9667 223° Southwest 450 518 38,000  Level Montreal Center
Mon 11:13:55 AM 58.2833 -68.1167 218° Southwest 450 518 38,000  Level Montreal Center
Mon 11:14:55 AM 58.2000 -68.2667 224° Southwest 470 541 38,000  Level Montreal Center
Mon 11:16:41 AM 58.0167 -68.5167 216° Southwest 480 552 38,000  Level Montreal Center
Mon 11:17:41 AM 57.9167 -68.6667 219° Southwest 460 529 38,000  Level Montreal Center
Mon 11:18:41 AM 57.8000 -68.7833 208° Southwest 460 529 38,000  Level Montreal Center
Mon 11:19:41 AM 57.7000 -68.9333 219° Southwest 460 529 38,000  Level Montreal Center
Mon 11:20:41 AM 57.6000 -69.0833 219° Southwest 460 529 38,000  Level Montreal Center
Mon 11:21:41 AM 57.5000 -69.2167 216° Southwest 460 529 38,000  Level Montreal Center
Mon 11:23:41 AM 57.2833 -69.5167 217° Southwest 460 529 38,000  Level Montreal Center
Mon 11:24:41 AM 57.1833 -69.6167 208° Southwest 460 529 38,000  Level Montreal Center
Mon 11:25:41 AM 57.0833 -69.7667 219° Southwest 460 529 38,000  Level Montreal Center
Mon 11:26:41 AM 56.9667 -69.9000 212° Southwest 460 529 38,000  Level Montreal Center
Mon 11:27:41 AM 56.8500 -70.0500 215° Southwest 460 529 38,000  Level Montreal Center
Mon 11:28:41 AM 56.7667 -70.1833 221° Southwest 460 529 38,000  Level Montreal Center
Mon 11:29:41 AM 56.6500 -70.3333 215° Southwest 460 529 38,000  Level Montreal Center
Mon 11:30:41 AM 56.5500 -70.4667 216° Southwest 450 518 38,000  Level Montreal Center
Mon 11:31:41 AM 56.4333 -70.5667 205° Southwest 450 518 38,000  Level Montreal Center
Mon 11:32:41 AM 56.3500 -70.7000 222° Southwest 450 518 38,000  Level Montreal Center
Mon 11:33:41 AM 56.2333 -70.8500 216° Southwest 450 518 38,000  Level Montreal Center
Mon 11:34:41 AM 56.1333 -70.9500 209° Southwest 450 518 38,000  Level Montreal Center
Mon 11:36:41 AM 55.9333 -71.2167 217° Southwest 450 518 38,000  Level Montreal Center
Mon 11:37:41 AM 55.8333 -71.3167 209° Southwest 440 506 38,000  Level Montreal Center
Mon 11:38:41 AM 55.7167 -71.4500 213° Southwest 450 518 38,000  Level Montreal Center
Mon 11:40:41 AM 55.4833 -71.7167 213° Southwest 460 529 38,000  Level Montreal Center
Mon 11:41:41 AM 55.3833 -71.8333 214° Southwest 450 518 38,000  Level Montreal Center
Mon 11:43:41 AM 55.1833 -72.0667 214° Southwest 460 529 38,000  Level Montreal Center
Mon 11:44:41 AM 55.0667 -72.2000 213° Southwest 460 529 38,000  Level Montreal Center
Mon 11:45:41 AM 54.9500 -72.3333 213° Southwest 460 529 38,000  Level Montreal Center
Mon 11:46:41 AM 54.8500 -72.4500 214° Southwest 460 529 38,000  Level Montreal Center
Mon 11:47:41 AM 54.7333 -72.5833 213° Southwest 460 529 38,000  Level Montreal Center
Mon 11:48:41 AM 54.6500 -72.7000 219° Southwest 460 529 38,000  Level Montreal Center
Mon 11:49:41 AM 54.5333 -72.8000 206° Southwest 460 529 38,000  Level Montreal Center
Mon 11:50:41 AM 54.4333 -72.9167 214° Southwest 450 518 38,000  Level Montreal Center
Mon 11:51:41 AM 54.3167 -73.0500 214° Southwest 450 518 38,000  Level Montreal Center
Mon 11:52:41 AM 54.2000 -73.1667 210° Southwest 450 518 38,000  Level Montreal Center
Mon 11:54:41 AM 53.9833 -73.3833 210° Southwest 460 529 38,000  Level Montreal Center
Mon 11:55:40 AM 53.8833 -73.5000 215° Southwest 460 529 38,000  Level Montreal Center
Mon 11:56:40 AM 53.7667 -73.6333 214° Southwest 460 529 38,000  Level Montreal Center
Mon 11:57:40 AM 53.6500 -73.7500 211° Southwest 460 529 38,000  Level Montreal Center
Mon 11:58:40 AM 53.5333 -73.8333 203° Southwest 460 529 38,000  Level Montreal Center
Mon 11:59:40 AM 53.4167 -73.9333 207° Southwest 460 529 38,000  Level Montreal Center
Mon 12:00:40 PM 53.3000 -74.0167 203° Southwest 460 529 38,000  Level Montreal Center
Mon 12:01:40 PM 53.2000 -74.1000 207° Southwest 460 529 38,000  Level Montreal Center
Mon 12:02:40 PM 53.0833 -74.2333 214° Southwest 460 529 38,000  Level Montreal Center
Mon 12:03:40 PM 52.9667 -74.3167 203° Southwest 460 529 38,000  Level Montreal Center
Mon 12:04:40 PM 52.8667 -74.4000 207° Southwest 460 529 38,000  Level Montreal Center
Mon 12:05:40 PM 52.7333 -74.4833 201° Southwest 470 541 38,000  Level Montreal Center
Mon 12:06:40 PM 52.6333 -74.6000 215° Southwest 470 541 38,000  Level Montreal Center
Mon 12:07:40 PM 52.5167 -74.7000 208° Southwest 470 541 38,000  Level Montreal Center
Mon 12:08:40 PM 52.3833 -74.7833 201° Southwest 460 529 38,000  Level Montreal Center
Mon 12:09:40 PM 52.2667 -74.8667 204° Southwest 450 518 38,000  Level Montreal Center
Mon 12:10:40 PM 52.1500 -74.9833 212° Southwest 460 529 38,000  Level Montreal Center
Mon 12:11:40 PM 52.0333 -75.0667 204° Southwest 460 529 38,000  Level Montreal Center
Mon 12:12:40 PM 51.9167 -75.1500 204° Southwest 460 529 38,000  Level Montreal Center
Mon 12:13:40 PM 51.8000 -75.2333 204° Southwest 460 529 38,000  Level Montreal Center
Mon 12:14:40 PM 51.6833 -75.3333 208° Southwest 450 518 38,000  Level Montreal Center
Mon 12:15:40 PM 51.5833 -75.4167 207° Southwest 450 518 38,000  Level Montreal Center
Mon 12:16:40 PM 51.4500 -75.5000 201° Southwest 450 518 38,000  Level Montreal Center
Mon 12:17:40 PM 51.3500 -75.5833 208° Southwest 450 518 38,000  Level Montreal Center
Mon 12:19:40 PM 51.1167 -75.7500 205° Southwest 450 518 38,000  Level Montreal Center
Mon 12:20:40 PM 51.0000 -75.8500 208° Southwest 450 518 38,000  Level Montreal Center
Mon 12:21:40 PM 50.8833 -75.9333 204° Southwest 460 529 38,000  Level Montreal Center
Mon 12:24:40 PM 50.5500 -76.1833 205° Southwest 450 518 38,000  Level Montreal Center
Mon 12:25:40 PM 50.4333 -76.2500 200° South 440 506 38,000  Level Montreal Center
Mon 12:26:40 PM 50.3333 -76.3333 208° Southwest 440 506 38,000  Level Montreal Center
Mon 12:27:40 PM 50.2167 -76.4333 209° Southwest 440 506 38,000  Level Montreal Center
Mon 12:28:40 PM 50.0833 -76.5167 202° Southwest 440 506 38,000  Level Montreal Center
Mon 12:29:40 PM 49.9667 -76.6000 205° Southwest 450 518 38,000  Level Montreal Center
Mon 12:30:00 PM 49.9633 -76.5970 205° Southwest  Level FlightAware Approximate
Mon 12:30:40 PM 49.8667 -76.6667 203° Southwest 440 506 38,000  Level Montreal Center
Mon 12:31:40 PM 49.7500 -76.7500 205° Southwest 440 506 38,000  Level Montreal Center
Mon 12:32:40 PM 49.6333 -76.8167 200° South 440 506 38,000  Level Montreal Center
Mon 12:33:40 PM 49.5333 -76.9000 208° Southwest 420 483 38,000  Level Montreal Center
Mon 12:34:40 PM 49.4167 -76.9667 200° South 450 518 38,000  Level Montreal Center
Mon 12:35:40 PM 49.3000 -77.0500 205° Southwest 450 518 38,000  Level Montreal Center
Mon 12:36:40 PM 49.2000 -77.1500 213° Southwest 420 483 38,000  Level Montreal Center
Mon 12:37:40 PM 49.0833 -77.2000 196° South 440 506 38,000  Level Montreal Center
Mon 12:38:40 PM 48.9833 -77.3000 213° Southwest 440 506 38,000  Level Montreal Center
Mon 12:39:40 PM 48.8500 -77.3667 198° South 440 506 38,000  Level Montreal Center
Mon 12:40:40 PM 48.7500 -77.4500 209° Southwest 440 506 38,000  Level Montreal Center
Mon 12:41:40 PM 48.6333 -77.5167 201° Southwest 440 506 38,000  Level Montreal Center
Mon 12:43:19 PM 48.4500 -77.6167 200° South 450 518 38,000  Level Toronto Center
Mon 12:44:19 PM 48.3167 -77.7000 203° Southwest 450 518 38,000  Level Toronto Center
Mon 12:45:19 PM 48.2167 -77.7500 198° South 450 518 38,000  Level Toronto Center
Mon 12:46:19 PM 48.0833 -77.8333 203° Southwest 450 518 38,000  Level Toronto Center
Mon 12:48:19 PM 47.8667 -77.9667 205° Southwest 450 518 38,000  Level Toronto Center
Mon 12:49:19 PM 47.7333 -78.0500 203° Southwest 450 518 38,000  Level Toronto Center
Mon 12:50:19 PM 47.6333 -78.1000 199° South 450 518 38,000  Level Toronto Center
Mon 12:51:19 PM 47.5000 -78.1833 203° Southwest 440 506 38,000  Level Toronto Center
Mon 12:52:19 PM 47.4000 -78.2333 199° South 440 506 38,000  Level Toronto Center
Mon 12:53:40 PM 47.2500 -78.3667 211° Southwest 440 506 38,000  Level Montreal Center
Mon 12:54:40 PM 47.1333 -78.4333 201° Southwest 440 506 38,000  Level Montreal Center
Mon 12:55:40 PM 47.0000 -78.5000 199° South 440 506 38,000  Level Montreal Center
Mon 12:56:40 PM 46.9000 -78.5500 199° South 440 506 38,000  Level Montreal Center
Mon 12:57:19 PM 46.8333 -78.5667 190° South 440 506 38,000  Level Toronto Center
Mon 12:58:19 PM 46.7167 -78.6333 201° Southwest 440 506 38,000  Level Toronto Center
Mon 12:59:19 PM 46.6000 -78.6833 196° South 440 506 38,000  Level Toronto Center
Mon 01:01:19 PM 46.3667 -78.8333 204° Southwest 440 506 38,000  Level Toronto Center
Mon 01:02:19 PM 46.2500 -78.8833 197° South 440 506 38,000  Level Toronto Center
Mon 01:03:19 PM 46.1333 -78.9500 202° Southwest 440 506 38,000  Level Toronto Center
Mon 01:09:20 PM 45.7790 -79.1665 202° Southwest 440 506 38,000  Level FlightAware ADS-B
Mon 01:11:24 PM 45.3228 -79.4086 200° South 440 506 38,000  Level FlightAware ADS-B (CYKF)
Mon 01:12:45 PM 45.3228 -79.4086 322° Northwest 440 506 38,000  Level FlightAware ADS-B (CYKF)
Mon 01:17:25 PM 45.3228 -79.4086 20° North 420 483 38,000  Level FlightAware ADS-B (CYKF)
Mon 01:22:27 PM 44.0702 -80.2519 206° Southwest 428 493 38,000  Level FlightAware ADS-B (CYKF)
Mon 01:23:06 PM 43.9731 -80.3380 213° Southwest 426 490 38,000  Level FlightAware ADS-B (EPLB / LUZ)
Mon 01:23:46 PM 43.9062 -80.3970 212° Southwest 424 488 38,000  Level FlightAware ADS-B (EPLB / LUZ)
Mon 01:24:46 PM 43.8214 -80.4716 212° Southwest 421 484 38,000  Level FlightAware ADS-B (CYKF)
Mon 01:25:08 PM 43.7801 -80.5078 212° Southwest 421 484 38,000  Level FlightAware ADS-B (ETHL)
Mon 01:25:46 PM 43.7089 -80.5701 212° Southwest 423 487 38,000  Level FlightAware ADS-B (CYKF)
Mon 01:26:27 PM 43.6414 -80.6290 212° Southwest 424 488 38,000  Level FlightAware ADS-B (CYKF)
Mon 01:27:00 PM 43.5854 -80.6779 212° Southwest 427 491 38,000  Level FlightAware ADS-B (EPLB / LUZ)
Mon 01:27:58 PM 43.4888 -80.7618 212° Southwest 427 491 38,000  Level FlightAware ADS-B (EPLB / LUZ)
Mon 01:28:30 PM 43.4361 -80.8074 212° Southwest 427 491 38,000  Level FlightAware ADS-B (CYKF)
Mon 01:29:10 PM 43.3720 -80.8628 212° Southwest 429 494 38,000  Level FlightAware ADS-B (CYKF)
Mon 01:29:53 PM 43.2983 -80.9262 212° Southwest 427 491 38,000  Level FlightAware ADS-B (EPLB / LUZ)
Mon 01:30:39 PM 43.2231 -80.9908 212° Southwest 426 490 38,000  Level FlightAware ADS-B (EPLB / LUZ)
Mon 01:31:10 PM 43.1676 -81.0384 212° Southwest 426 490 38,000  Level FlightAware ADS-B (EPLB / LUZ)
Mon 01:31:50 PM 43.1012 -81.0951 212° Southwest 424 488 38,000  Level FlightAware ADS-B (EPLB / LUZ)
Mon 01:32:23 PM 43.0465 -81.1410 212° Southwest 424 488 38,000  Level FlightAware ADS-B (EPLB / LUZ)
Mon 01:33:03 PM 42.9744 -81.1866 205° Southwest 433 498 38,000  Level FlightAware ADS-B (EPLB / LUZ)
Mon 01:33:44 PM 42.9001 -81.2337 205° Southwest 430 495 38,000  Level FlightAware ADS-B (CYKF)
Mon 01:34:31 PM 42.9001 -81.2337 205° Southwest 429 494 38,000  Level FlightAware ADS-B (CYKF)
Mon 01:35:27 PM 42.7521 -81.3255 204° Southwest 426 490 38,000  Level FlightAware ADS-B (CYKF)
Mon 01:36:08 PM 42.6416 -81.3933 204° Southwest 423 487 38,000  Level FlightAware ADS-B (CYKF)
Mon 01:36:48 PM 42.5698 -81.4372 204° Southwest 423 487 38,000  Level FlightAware ADS-B (CYKF)
Mon 01:37:19 PM 42.6139 -81.4102 24° Northeast 418 481 38,000  Level FlightAware ADS-B (EPLB / LUZ)
Mon 01:38:05 PM 42.6139 -81.4102 24° Northeast 415 478 38,000  Level FlightAware ADS-B (EPLB / LUZ)
Mon 01:39:19 PM 42.3000 -81.6000 24° Northeast 410 472 38,000  Level Toronto Center
Mon 01:40:19 PM 42.2000 -81.6333 194° South 410 472 38,000  Level Toronto Center
Mon 01:41:19 PM 42.0833 -81.7000 203° Southwest 420 483 38,000  Level Toronto Center
Mon 01:43:39 PM 41.8603 -81.8653 209° Southwest 412 474 38,000  Level Cleveland Center
Mon 01:44:41 PM 41.7542 -81.9289 204° Southwest 416 479 38,000  Level Cleveland Center
Mon 01:45:42 PM 41.6472 -81.9908 203° Southwest 416 479 38,000  Level Cleveland Center
Mon 01:46:44 PM 41.5406 -82.0539 204° Southwest 418 481 38,000  Level Cleveland Center
Mon 01:47:46 PM 41.4139 -82.1278 204° Southwest 424 488 38,000  Level Cleveland Center
Mon 01:48:48 PM 41.2997 -82.1814 199° South 436 502 38,000  Level Cleveland Center
Mon 01:49:50 PM 41.1803 -82.2261 196° South 445 512 38,000  Level Cleveland Center
Mon 01:50:51 PM 41.0586 -82.2689 195° South 449 517 38,000  Level Cleveland Center
Mon 01:51:53 PM 40.9383 -82.3114 195° South 446 513 38,000  Level Cleveland Center
Mon 01:52:29 PM 40.8578 -82.3400 195° South 444 511 38,000  Level Indianapolis Center
Mon 01:58:37 PM 40.1399 -82.5863 195° South 439 505 38,000  Level FlightAware ADS-B
Mon 02:00:34 PM 39.8962 -82.6058 184° South 439 505 38,000  Level FlightAware ADS-B
Mon 02:01:30 PM 39.7862 -82.6131 183° South 431 496 38,000  Level FlightAware ADS-B
Mon 02:02:23 PM 39.6802 -82.6203 183° South 428 493 38,000  Level FlightAware ADS-B
Mon 02:03:03 PM 39.5988 -82.6258 183° South 429 494 38,000  Level FlightAware ADS-B
Mon 02:03:44 PM 39.5193 -82.6313 183° South 430 495 38,000  Level FlightAware ADS-B
Mon 02:04:23 PM 39.4412 -82.6365 183° South 432 497 38,000  Level FlightAware ADS-B
Mon 02:04:56 PM 39.3770 -82.6408 183° South 433 498 38,000  Level FlightAware ADS-B
Mon 02:05:36 PM 39.2951 -82.6462 183° South 434 499 38,000  Level FlightAware ADS-B
Mon 02:06:18 PM 39.2104 -82.6519 183° South 435 501 38,000  Level FlightAware ADS-B
Mon 02:06:57 PM 39.1333 -82.6570 183° South 436 502 38,000  Level FlightAware ADS-B
Mon 02:07:35 PM 39.0607 -82.6618 183° South 437 503 38,000  Level FlightAware ADS-B
Mon 02:08:15 PM 38.9791 -82.6622 180° South 453 521 38,000  Level FlightAware ADS-B
Mon 02:08:48 PM 38.9055 -82.6465 171° South 459 528 38,000  Level FlightAware ADS-B
Mon 02:08:55 PM 38.9067 -82.6464 179° South 448 516 38,000  Level Indianapolis Center
Mon 02:09:27 PM 38.8286 -82.6289 170° South 461 531 38,000  Level FlightAware ADS-B
Mon 02:10:00 PM 38.7749 -82.6444 179° South  Level FlightAware Approximate
Mon 02:10:01 PM 38.7519 -82.6110 170° South 463 533 38,000  Level FlightAware ADS-B
Mon 02:10:39 PM 38.6763 -82.5931 169° South 464 534 38,000  Level FlightAware ADS-B
Mon 02:10:58 PM 38.6553 -82.5883 179° South 460 529 38,000  Level Indianapolis Center
Mon 02:12:00 PM 38.5206 -82.5556 169° South 463 533 38,000  Level Indianapolis Center
Mon 02:13:02 PM 38.3919 -82.5261 170° South 466 536 38,000  Level Indianapolis Center
Mon 02:14:00 PM 38.2693 -82.5874 179° South  Level Estimated
Mon 02:14:03 PM 38.2483 -82.4917 169° South 467 537 38,000  Level Indianapolis Center
Mon 02:15:05 PM 38.1206 -82.4611 169° South 468 539 38,000  Level Indianapolis Center
Mon 02:16:07 PM 37.9936 -82.4675 182° South 438 504 38,000  Level Indianapolis Center
Mon 02:17:09 PM 37.8958 -82.5325 208° Southwest 401 461 38,000  Level Indianapolis Center
Mon 02:18:10 PM 37.8006 -82.6008 210° Southwest 395 455 38,000  Level Indianapolis Center
Mon 02:19:12 PM 37.7053 -82.6669 209° Southwest 391 450 38,000  Level Indianapolis Center
Mon 02:20:14 PM 37.6122 -82.7331 209° Southwest 386 444 38,000  Level Indianapolis Center
Mon 02:21:16 PM 37.5031 -82.8081 209° Southwest 383 441 38,000  Level Indianapolis Center
Mon 02:23:20 PM 37.3156 -82.9375 209° Southwest 384 442 38,000  Level Indianapolis Center
Mon 02:24:21 PM 37.2217 -83.0019 209° Southwest 386 444 38,000  Level Indianapolis Center
Mon 02:25:23 PM 37.1275 -83.0669 209° Southwest 388 447 38,000  Level Indianapolis Center
Mon 02:27:35 PM 36.9044 -83.2236 209° Southwest 409 471 38,000  Level Atlanta Center
Mon 02:29:35 PM 36.7092 -83.3553 206° Southwest 403 464 38,000  Level Atlanta Center
Mon 02:30:33 PM 36.6308 -83.4064 208° Southwest 400 460 38,000  Level Indianapolis Center
Mon 02:31:34 PM 36.5156 -83.4850 209° Southwest 403 464 38,000  Level Indianapolis Center
Mon 02:32:36 PM 36.4181 -83.5517 209° Southwest 407 468 38,000  Level Indianapolis Center
Mon 02:33:38 PM 36.3169 -83.6189 208° Southwest 409 471 38,000  Level Indianapolis Center
Mon 02:34:40 PM 36.2164 -83.6867 209° Southwest 410 472 38,000  Level Indianapolis Center
Mon 02:35:42 PM 36.1142 -83.7544 208° Southwest 413 475 38,000  Level Indianapolis Center
Mon 02:36:35 PM 36.0122 -83.8256 209° Southwest 413 475 38,000  Level Atlanta Center
Mon 02:41:50 PM 35.3115 -84.0386 209° Southwest 428 493 38,000  Level FlightAware ADS-B (KDZJ)
Mon 02:42:22 PM 35.2490 -84.0536 191° South 424 488 38,000  Level FlightAware ADS-B (KDZJ)
Mon 02:42:52 PM 35.1913 -84.0674 191° South 424 488 38,000  Level FlightAware ADS-B (KDZJ)
Mon 02:43:33 PM 35.1092 -84.0872 191° South 424 488 38,000  Level FlightAware ADS-B (KDZJ)
Mon 02:44:07 PM 35.0440 -84.1026 191° South 423 487 38,000  Level FlightAware ADS-B (KDZJ)
Mon 02:44:51 PM 34.9576 -84.1232 191° South 430 495 38,000  Level FlightAware ADS-B (KDZJ)
Mon 02:45:33 PM 34.8749 -84.1429 191° South 428 493 38,000  Level FlightAware ADS-B (KDZJ)
Mon 02:46:11 PM 34.8007 -84.1607 191° South 429 494 38,000  Level FlightAware ADS-B (KDZJ)
Mon 02:46:44 PM 34.7377 -84.1756 191° South 424 488 38,000  Level FlightAware ADS-B (KDZJ)
Mon 02:47:32 PM 34.6426 -84.1982 191° South 424 488 38,000  Level FlightAware ADS-B (KDZJ)
Mon 02:48:04 PM 34.5798 -84.2130 191° South 424 488 38,000  Level FlightAware ADS-B (KDZJ)
Mon 02:48:44 PM 34.5020 -84.2313 191° South 423 487 38,000  Level FlightAware ADS-B (KDZJ)
Mon 02:49:33 PM 34.4051 -84.2541 191° South 429 494 38,000  Level FlightAware ADS-B (KDZJ)
Mon 02:50:13 PM 34.3282 -84.2722 191° South 429 494 38,000  Level FlightAware ADS-B (KDZJ)
Mon 02:50:35 PM 34.3825 -84.2578 190° South 431 496 38,000  Level Atlanta Center
Mon 02:50:52 PM 34.2512 -84.2903 191° South 423 487 38,000  Level FlightAware ADS-B (KDZJ)
Mon 02:51:33 PM 34.1714 -84.3091 191° South 424 488 38,000  Level FlightAware ADS-B (KDZJ)
Mon 02:51:35 PM 34.2678 -84.2850 191° South 431 496 38,000  Level Atlanta Center
Mon 02:52:13 PM 34.0937 -84.3272 191° South 426 490 38,000  Level FlightAware ADS-B (KDZJ)
Mon 02:52:35 PM 34.1489 -84.3150 192° South 431 496 38,000  Level Atlanta Center
Mon 02:52:53 PM 34.0141 -84.3458 191° South 427 491 38,000  Level FlightAware ADS-B (KDZJ)
Mon 02:53:31 PM 33.9396 -84.3631 191° South 427 491 38,000  Level FlightAware ADS-B (KDZJ)
Mon 02:54:35 PM 33.9003 -84.3742 191° South 440 506 38,000  Level Atlanta Center
Mon 02:55:35 PM 33.7769 -84.4036 191° South 440 506 38,000  Level Atlanta Center
Mon 02:56:00 PM 33.6428 -84.4277 190° South  Level FlightAware Approximate
Mon 02:56:35 PM 33.6558 -84.4281 190° South 445 512 38,000  Level Atlanta Center
Mon 02:57:35 PM 33.5472 -84.4375 184° South 450 518 38,000  Level Atlanta Center
Mon 02:58:35 PM 33.4200 -84.4344 179° South 450 518 38,000  Level Atlanta Center
Mon 02:59:35 PM 33.2906 -84.4339 180° South 455 524 38,000  Level Atlanta Center
Mon 03:00:35 PM 33.1611 -84.4283 178° South 460 529 38,000  Level Atlanta Center
Mon 03:02:35 PM 32.9044 -84.4272 180° South 466 536 38,000  Level Atlanta Center
Mon 03:03:35 PM 32.7625 -84.4192 177° South 466 536 38,000  Level Atlanta Center
Mon 03:04:35 PM 32.6331 -84.4161 179° South 459 528 38,000  Level Atlanta Center
Mon 03:05:35 PM 32.5036 -84.4156 180° South 459 528 38,000  Level Atlanta Center
Mon 03:06:35 PM 32.3764 -84.4128 179° South 459 528 38,000 -294 Level Atlanta Center
Mon 03:08:59 PM 32.0719 -84.4053 179° South 459 528 37,000 -110 Descending Jacksonville Center
Mon 03:15:38 PM 31.2316 -84.3272 179° South 480 552 37,000  Level FlightAware ADS-B (KONZ)
Mon 03:16:25 PM 31.1363 -84.2819 158° South 480 552 37,000  Level FlightAware ADS-B (KONZ)
Mon 03:17:05 PM 31.0540 -84.2433 158° South 479 551 37,000  Level FlightAware ADS-B (KONZ)
Mon 03:18:26 PM 30.8856 -84.1662 159° South 481 554 37,000  Level FlightAware ADS-B (KONZ)
Mon 03:19:06 PM 30.8132 -84.1329 158° South 481 554 37,000  Level FlightAware ADS-B (KONZ)
Mon 03:19:45 PM 30.7216 -84.0910 159° South 482 555 37,000  Level FlightAware ADS-B (KONZ)
Mon 03:20:22 PM 30.6525 -84.0594 159° South 483 556 37,000  Level FlightAware ADS-B (KONZ)
Mon 03:21:06 PM 30.5545 -84.0147 159° South 483 556 37,000  Level FlightAware ADS-B (KONZ)
Mon 03:21:46 PM 30.4754 -83.9787 159° South 483 556 37,000  Level FlightAware ADS-B (KONZ)
Mon 03:22:24 PM 30.3944 -83.9418 159° South 482 555 37,000  Level FlightAware ADS-B (KONZ)
Mon 03:23:04 PM 30.3078 -83.9025 159° South 480 552 37,000  Level FlightAware ADS-B (KONZ)
Mon 03:23:45 PM 30.2403 -83.8719 159° South 480 552 37,000  Level FlightAware ADS-B (KONZ)
Mon 03:24:22 PM 30.1744 -83.8421 159° South 482 555 37,000  Level FlightAware ADS-B (KONZ)
Mon 03:24:59 PM 30.0775 -83.7975 159° South 477 549 37,000  Level Jacksonville Center
Mon 03:25:59 PM 29.9525 -83.7461 160° South 477 549 37,000  Level Jacksonville Center
Mon 03:26:59 PM 29.8278 -83.6875 158° South 482 555 37,000  Level Jacksonville Center
Mon 03:27:59 PM 29.7131 -83.6364 159° South 487 560 37,000  Level Jacksonville Center
Mon 03:28:59 PM 29.5903 -83.5806 158° South 487 560 37,000  Level Jacksonville Center
Mon 03:29:59 PM 29.4675 -83.5272 159° South 487 560 37,000  Level Jacksonville Center
Mon 03:30:59 PM 29.3425 -83.4714 159° South 487 560 37,000  Level Jacksonville Center
Mon 03:31:59 PM 29.2236 -83.4183 159° South 475 547 37,000  Level Jacksonville Center
Mon 03:38:11 PM 28.4637 -83.0826 159° South 465 535 37,000  Level FlightAware ADS-B
Mon 03:39:31 PM 28.3008 -83.0118 159° South 467 537 37,000  Level FlightAware ADS-B
Mon 03:40:24 PM 28.2092 -82.9719 159° South 467 537 37,000  Level FlightAware ADS-B
Mon 03:42:47 PM 27.9432 -82.8568 159° South 467 537 37,000  Level FlightAware ADS-B
Mon 03:43:17 PM 27.8463 -82.8151 159° South 468 539 37,000  Level FlightAware ADS-B
Mon 03:44:26 PM 27.7219 -82.7744 176° South 461 531 37,000  Level Miami Center
Mon 03:44:46 PM 27.6608 -82.7703 168° South 445 512 37,000  Level FlightAware ADS-B
Mon 03:45:26 PM 27.5844 -82.7672 177° South 456 525 37,000  Level Miami Center
Mon 03:45:27 PM 27.6031 -82.7662 176° South 442 509 37,000  Level FlightAware ADS-B
Mon 03:48:26 PM 27.2350 -82.7422 176° South 438 504 37,000  Level Miami Center
Mon 03:50:00 PM 27.0534 -82.7222 176° South  Level Estimated
Mon 03:54:00 PM 26.5485 -82.6924 176° South  Level FlightAware Approximate
Mon 03:54:25 PM 26.4862 -82.6882 176° South 444 511 37,000  Level FlightAware ADS-B
Mon 03:55:07 PM 26.3997 -82.6822 176° South 446 513 37,000  Level FlightAware ADS-B
Mon 03:55:46 PM 26.3230 -82.6769 176° South 447 514 37,000  Level FlightAware ADS-B
Mon 03:56:26 PM 26.2370 -82.6709 176° South 442 509 37,000  Level FlightAware ADS-B
Mon 03:59:02 PM 25.9209 -82.6490 176° South 438 504 37,000 -183 Level FlightAware ADS-B
Mon 04:02:27 PM 25.5056 -82.6205 176° South 435 501 35,900 -455 Descending FlightAware ADS-B
Mon 04:03:26 PM 25.3953 -82.6147 176° South 438 504 35,000 -958 Descending Miami Center
Mon 04:04:26 PM 25.2744 -82.6069 177° South 438 504 34,000 -1,000 Descending Miami Center
Mon 04:05:26 PM 25.1494 -82.5986 177° South 438 504 33,000 -1,000 Descending Miami Center
Mon 04:07:26 PM 24.9100 -82.5828 175° South 434 499 31,000 -1,000 Descending Miami Center
Mon 04:08:00 PM 24.8338 -82.5689 176° South  Level FlightAware Approximate
Mon 04:09:26 PM 24.6789 -82.5675 177° South 423 487 29,000  Level Miami Center
Mon 04:10:26 PM 24.5644 -82.5600 177° South 417 480 28,000 -1,000 Descending Miami Center
Mon 04:11:26 PM 24.4539 -82.5550 178° South 412 474 27,000 -950 Descending Miami Center
Mon 04:12:26 PM 24.3436 -82.5453 175° South 407 468 26,100 -950 Descending Miami Center
Mon 04:13:26 PM 24.2333 -82.5381 177° South 402 463 25,100 -1,000 Descending Miami Center
Mon 04:15:00 PM 24.0445 -82.5167 180° South  Level FlightAware Approximate
Mon 04:22:00 PM 23.2018 -82.4167 180° South  Level FlightAware Approximate
Mon 04:23:00 PM 23.0815 -82.4063 170° South  Level FlightAware Approximate
Mon 04:24:00 PM 22.9891 -82.4091 180° South  Level Estimated
Mon 04:25:00 PM 22.9891 -82.4091 180° South  Level Estimated
Mon 04:26:00 PM 22.9891 -82.4091 180° South  Level Estimated
Mon 04:27:00 PM 22.9891 -82.4091 180° South  Level Estimated
Mon 04:28:00 PM 22.9891 -82.4091 180° South  Level Estimated
Mon 04:29:00 PM 22.9891 -82.4091 180° South  Level Estimated
Mon 04:30:00 PM 22.9891 -82.4091 180° South  Level Estimated
Mon 04:31:00 PM 22.9891 -82.4091 180° South  Level Estimated
Mon 04:32:00 PM 22.9891 -82.4091 180° South  Level Estimated
Mon 04:33:00 PM 22.9891 -82.4091 180° South  Level Estimated
Mon 04:34:00 PM 22.9891 -82.4091 180° South  Level Estimated
Mon 04:35:00 PM 22.9891 -82.4091 180° South  Level Estimated
Mon 04:36:00 PM 22.9891 -82.4091 180° South  Level Estimated
Mon 04:37:00 PM 22.9891 -82.4091 180° South  Level Estimated
Mon 04:38:00 PM 22.9891 -82.4091 180° South  Level Estimated
Mon 04:39:00 PM 22.9891 -82.4091 180° South  Level Estimated
Mon 04:40:00 PM 22.9891 -82.4091 180° South  Level Estimated
Mon 04:41:00 PM 22.9891 -82.4091 180° South  Level Estimated
Mon 04:42:00 PM 22.9891 -82.4091 180° South  Level Estimated
Mon 04:43:00 PM 22.9891 -82.4091 180° South  Level Estimated
Mon 04:44:00 PM 22.9891 -82.4091 180° South  Level Estimated
Mon 04:45:00 PM 22.9891 -82.4091 180° South  Level Estimated
Mon 04:46:00 PM 22.9891 -82.4091 180° South  Level Estimated

Login

Don't have an account? Register now (free) for customized features, flight alerts, and more!